createdAt,value
2023-04-03T00:01:08.479Z,61.76
2023-04-03T00:04:53.353Z,61.81
2023-04-03T00:07:55.149Z,61.96
2023-04-03T00:11:08.419Z,61.87
2023-04-03T00:14:17.765Z,61.93
2023-04-03T00:17:27.364Z,62.03
2023-04-03T00:21:07.568Z,62.26
2023-04-03T00:24:14.709Z,62.43
2023-04-03T00:27:21.759Z,62.49
2023-04-03T00:30:24.092Z,62.65
2023-04-03T00:33:28.366Z,62.76
2023-04-03T00:36:39.260Z,62.71
2023-04-03T00:39:52.514Z,62.90
2023-04-03T00:43:28.703Z,62.93
2023-04-03T00:46:30.699Z,62.88
2023-04-03T00:49:55.853Z,62.91
2023-04-03T00:53:05.929Z,63.00
2023-04-03T00:56:19.451Z,63.05
2023-04-03T00:59:33.636Z,63.15
2023-04-03T01:02:43.095Z,63.19
2023-04-03T01:06:01.957Z,63.22
2023-04-03T01:09:16.645Z,63.14
2023-04-03T01:12:35.495Z,63.19
2023-04-03T01:15:37.252Z,63.09
2023-04-03T01:18:50.172Z,63.13
2023-04-03T01:22:22.677Z,63.11
2023-04-03T01:25:25.547Z,63.24
2023-04-03T01:28:33.593Z,63.22
2023-04-03T01:32:07.325Z,63.22
2023-04-03T01:35:29.649Z,63.20
2023-04-03T01:38:36.221Z,63.37
2023-04-03T01:42:01.067Z,63.31
2023-04-03T01:45:09.409Z,63.30
2023-04-03T01:48:21.454Z,63.37
2023-04-03T01:51:34.769Z,63.27
2023-04-03T01:55:08.196Z,63.43
2023-04-03T01:58:30.334Z,63.52
2023-04-03T02:01:44.526Z,63.84
2023-04-03T02:04:46.175Z,63.80
2023-04-03T02:07:55.971Z,63.74
2023-04-03T02:11:00.480Z,63.85
2023-04-03T02:14:02.606Z,63.87
2023-04-03T02:17:09.576Z,63.87
2023-04-03T02:20:31.545Z,63.89
2023-04-03T02:24:02.834Z,63.81
2023-04-03T02:27:04.496Z,63.80
2023-04-03T02:30:17.711Z,63.86
2023-04-03T02:33:22.303Z,64.05
2023-04-03T02:36:57.609Z,64.04
2023-04-03T02:40:16.956Z,64.06
2023-04-03T02:43:19.461Z,64.22
2023-04-03T02:46:42.230Z,64.17
2023-04-03T02:49:46.187Z,64.20
2023-04-03T02:52:48.049Z,64.15
2023-04-03T02:55:50.119Z,64.14
2023-04-03T02:59:02.344Z,64.20
2023-04-03T03:02:04.856Z,64.15
2023-04-03T03:05:07.606Z,64.08
2023-04-03T03:08:09.525Z,64.18
2023-04-03T03:11:11.853Z,64.19
2023-04-03T03:14:13.692Z,64.08
2023-04-03T03:17:43.423Z,64.27
2023-04-03T03:20:48.134Z,64.18
2023-04-03T03:24:00.315Z,64.03
2023-04-03T03:27:22.540Z,63.98
2023-04-03T03:30:35.047Z,63.79
2023-04-03T03:33:42.628Z,63.81
2023-04-03T03:36:59.594Z,63.64
2023-04-03T03:40:21.768Z,63.64
2023-04-03T03:43:33.865Z,63.41
2023-04-03T03:46:35.764Z,63.34
2023-04-03T03:49:42.858Z,63.28
2023-04-03T03:53:08.328Z,63.24
2023-04-03T03:56:12.707Z,63.12
2023-04-03T03:59:35.205Z,62.97
2023-04-03T04:02:40.521Z,63.02
2023-04-03T04:05:42.493Z,62.93
2023-04-03T04:09:04.771Z,62.89
2023-04-03T04:12:07.099Z,62.68
2023-04-03T04:15:10.613Z,62.67
2023-04-03T04:18:12.958Z,62.58
2023-04-03T04:21:21.838Z,62.26
2023-04-03T04:24:26.718Z,62.27
2023-04-03T04:27:29.260Z,62.11
2023-04-03T04:30:31.639Z,61.99
2023-04-03T04:33:33.894Z,61.93
2023-04-03T04:36:37.382Z,61.93
2023-04-03T04:39:59.609Z,61.82
2023-04-03T04:43:01.886Z,61.66
2023-04-03T04:46:12.820Z,61.54
2023-04-03T04:49:18.717Z,61.49
2023-04-03T04:52:23.456Z,61.45
2023-04-03T04:55:25.757Z,61.39
2023-04-03T04:58:47.990Z,61.31
2023-04-03T05:01:51.211Z,61.26
2023-04-03T05:04:53.836Z,61.21
2023-04-03T05:08:02.396Z,61.17
2023-04-03T05:11:04.648Z,61.14
2023-04-03T05:14:07.730Z,61.17
2023-04-03T05:17:13.414Z,61.09
2023-04-03T05:20:18.090Z,61.15
2023-04-03T05:23:29.949Z,61.05
2023-04-03T05:26:32.846Z,61.08
2023-04-03T05:29:45.291Z,61.04
2023-04-03T05:32:49.107Z,61.10
2023-04-03T05:35:55.515Z,61.02
2023-04-03T05:39:01.711Z,60.95
2023-04-03T05:42:04.162Z,60.96
2023-04-03T05:45:06.586Z,61.02
2023-04-03T05:48:18.529Z,60.91
2023-04-03T05:51:27.051Z,60.95
2023-04-03T05:54:36.613Z,60.95
2023-04-03T05:57:44.606Z,60.86
2023-04-03T06:00:46.679Z,60.80
2023-04-03T06:03:48.616Z,60.89
2023-04-03T06:06:55.830Z,60.92
2023-04-03T06:09:58.607Z,60.89
2023-04-03T06:13:03.759Z,60.91
2023-04-03T06:16:06.729Z,60.94
2023-04-03T06:19:19.555Z,60.92
2023-04-03T06:22:34.982Z,60.96
2023-04-03T06:25:48.081Z,60.98
2023-04-03T06:28:49.824Z,61.04
2023-04-03T06:31:52.546Z,61.03
2023-04-03T06:34:58.577Z,61.11
2023-04-03T06:38:00.538Z,61.05
2023-04-03T06:41:05.605Z,61.01
2023-04-03T06:44:12.184Z,61.00
2023-04-03T06:47:15.431Z,60.99
2023-04-03T06:50:17.872Z,61.05
2023-04-03T06:53:25.329Z,61.07
2023-04-03T06:56:27.500Z,61.01
2023-04-03T06:59:49.635Z,60.85
2023-04-03T07:02:52.616Z,60.90
2023-04-03T07:06:35.316Z,60.75
2023-04-03T07:09:40.282Z,60.71
2023-04-03T07:13:02.838Z,60.72
2023-04-03T07:16:06.545Z,60.59
2023-04-03T07:19:31.706Z,60.59
2023-04-03T07:22:56.569Z,60.43
2023-04-03T07:26:20.256Z,60.32
2023-04-03T07:29:22.722Z,60.25
2023-04-03T07:32:33.261Z,60.10
2023-04-03T07:35:38.166Z,59.93
2023-04-03T07:38:43.419Z,59.85
2023-04-03T07:42:01.791Z,59.58
2023-04-03T07:45:07.888Z,59.34
2023-04-03T07:48:13.280Z,59.22
2023-04-03T07:51:46.843Z,59.14
2023-04-03T07:54:48.658Z,58.92
2023-04-03T07:58:05.115Z,58.73
2023-04-03T08:01:09.742Z,58.56
2023-04-03T08:04:32.082Z,58.57
2023-04-03T08:07:38.188Z,58.49
2023-04-03T08:11:07.240Z,58.24
2023-04-03T08:14:19.646Z,58.03
2023-04-03T08:17:21.862Z,57.82
2023-04-03T08:20:23.574Z,57.75
2023-04-03T08:23:25.719Z,57.44
2023-04-03T08:26:27.755Z,57.21
2023-04-03T08:29:29.469Z,57.04
2023-04-03T08:32:31.713Z,56.95
2023-04-03T08:35:33.990Z,56.77
2023-04-03T08:38:47.056Z,56.70
2023-04-03T08:41:49.150Z,56.54
2023-04-03T08:45:29.671Z,56.41
2023-04-03T08:48:41.954Z,56.18
2023-04-03T08:51:47.214Z,56.05
2023-04-03T08:54:55.251Z,55.94
2023-04-03T08:58:27.966Z,55.65
2023-04-03T09:01:40.702Z,55.59
2023-04-03T09:04:43.140Z,55.51
2023-04-03T09:07:50.030Z,55.45
2023-04-03T09:10:59.992Z,55.28
2023-04-03T09:14:40.377Z,54.90
2023-04-03T09:17:56.157Z,54.74
2023-04-03T09:21:23.993Z,54.69
2023-04-03T09:24:47.150Z,54.57
2023-04-03T09:27:49.093Z,54.24
2023-04-03T09:30:53.182Z,53.98
2023-04-03T09:34:11.184Z,53.93
2023-04-03T09:37:41.192Z,53.46
2023-04-03T09:41:03.992Z,53.18
2023-04-03T09:44:22.218Z,52.88
2023-04-03T09:47:31.286Z,52.74
2023-04-03T09:50:33.203Z,52.27
2023-04-03T09:53:40.699Z,51.97
2023-04-03T09:56:53.159Z,51.67
2023-04-03T10:00:05.822Z,51.42
2023-04-03T10:03:36.449Z,50.97
2023-04-03T10:06:48.007Z,50.46
2023-04-03T10:09:58.937Z,50.48
2023-04-03T10:13:23.992Z,50.21
2023-04-03T10:16:29.001Z,49.81
2023-04-03T10:19:47.183Z,49.53
2023-04-03T10:23:22.419Z,49.42
2023-04-03T10:26:52.263Z,49.17
2023-04-03T10:30:06.177Z,48.70
2023-04-03T10:33:32.110Z,48.73
2023-04-03T10:36:33.817Z,48.62
2023-04-03T10:39:47.019Z,48.48
2023-04-03T10:42:59.436Z,48.46
2023-04-03T10:46:30.388Z,48.28
2023-04-03T10:49:57.007Z,48.16
2023-04-03T10:53:33.666Z,48.13
2023-04-03T10:57:04.488Z,47.80
2023-04-03T11:00:19.646Z,47.85
2023-04-03T11:03:44.275Z,47.75
2023-04-03T11:06:49.736Z,47.52
2023-04-03T11:09:55.303Z,47.39
2023-04-03T11:13:14.242Z,46.90
2023-04-03T11:16:24.793Z,46.45
2023-04-03T11:19:36.349Z,46.02
2023-04-03T11:22:42.984Z,45.79
2023-04-03T11:25:46.338Z,45.46
2023-04-03T11:28:53.669Z,45.02
2023-04-03T11:32:19.810Z,45.02
2023-04-03T11:35:22.692Z,45.05
2023-04-03T11:38:31.964Z,44.82
2023-04-03T11:41:42.479Z,44.69
2023-04-03T11:44:44.383Z,44.53
2023-04-03T11:47:54.850Z,44.49
2023-04-03T11:50:57.829Z,44.77
2023-04-03T11:54:48.710Z,44.50
2023-04-03T11:57:59.606Z,44.43
2023-04-03T12:01:12.420Z,44.34
2023-04-03T12:04:16.057Z,44.32
2023-04-03T12:07:20.163Z,44.34
2023-04-03T12:10:31.793Z,43.96
2023-04-03T12:13:34.536Z,43.93
2023-04-03T12:16:39.372Z,43.89
2023-04-03T12:19:44.644Z,43.84
2023-04-03T12:23:25.638Z,43.91
2023-04-03T12:26:41.777Z,43.85
2023-04-03T12:29:54.367Z,43.70
2023-04-03T12:33:18.107Z,43.72
2023-04-03T12:36:29.096Z,43.48
2023-04-03T12:40:02.468Z,43.37
2023-04-03T12:43:19.383Z,43.33
2023-04-03T12:46:23.818Z,43.44
2023-04-03T12:49:43.544Z,43.11
2023-04-03T12:53:01.000Z,42.94
2023-04-03T12:56:22.137Z,42.70
2023-04-03T12:59:31.705Z,42.75
2023-04-03T13:02:35.566Z,42.54
2023-04-03T13:05:39.904Z,42.60
2023-04-03T13:08:50.855Z,42.63
2023-04-03T13:11:57.945Z,42.53
2023-04-03T13:15:18.815Z,42.62
2023-04-03T13:18:33.061Z,42.59
2023-04-03T13:21:36.196Z,42.62
2023-04-03T13:24:39.041Z,42.64
2023-04-03T13:28:12.521Z,42.60
2023-04-03T13:31:45.806Z,42.68
2023-04-03T13:34:47.807Z,42.96
2023-04-03T13:38:02.828Z,43.03
2023-04-03T13:41:30.809Z,42.93
2023-04-03T13:44:35.241Z,42.94
2023-04-03T13:47:44.830Z,43.07
2023-04-03T13:51:07.614Z,43.29
2023-04-03T13:54:21.088Z,43.23
2023-04-03T13:57:23.654Z,43.40
2023-04-03T14:00:53.238Z,43.41
2023-04-03T14:03:58.977Z,43.66
2023-04-03T14:07:22.502Z,43.62
2023-04-03T14:10:24.354Z,43.74
2023-04-03T14:13:26.208Z,43.76
2023-04-03T14:16:31.504Z,43.80
2023-04-03T14:19:35.634Z,43.77
2023-04-03T14:22:40.198Z,43.87
2023-04-03T14:25:45.137Z,43.95
2023-04-03T14:28:48.674Z,43.98
2023-04-03T14:32:03.644Z,44.06
2023-04-03T14:35:09.827Z,44.16
2023-04-03T14:38:31.720Z,44.17
2023-04-03T14:41:38.046Z,44.18
2023-04-03T14:44:39.798Z,44.27
2023-04-03T14:47:54.419Z,44.17
2023-04-03T14:51:05.600Z,44.22
2023-04-03T14:54:14.687Z,44.16
2023-04-03T14:57:17.243Z,44.32
2023-04-03T15:00:23.819Z,44.24
2023-04-03T15:03:25.775Z,44.14
2023-04-03T15:06:48.092Z,44.11
2023-04-03T15:09:50.627Z,44.12
2023-04-03T15:12:53.235Z,44.04
2023-04-03T15:16:04.692Z,44.01
2023-04-03T15:19:06.559Z,43.83
2023-04-03T15:22:14.677Z,43.77
2023-04-03T15:25:16.774Z,43.93
2023-04-03T15:28:24.029Z,43.86
2023-04-03T15:31:26.171Z,43.68
2023-04-03T15:34:30.695Z,43.71
2023-04-03T15:37:53.256Z,43.77
2023-04-03T15:40:55.177Z,43.78
2023-04-03T15:44:18.806Z,43.89
2023-04-03T15:47:23.936Z,43.74
2023-04-03T15:50:26.029Z,43.71
2023-04-03T15:53:27.934Z,43.83
2023-04-03T15:56:29.674Z,43.73
2023-04-03T15:59:33.027Z,43.62
2023-04-03T16:02:35.265Z,43.64
2023-04-03T16:05:39.008Z,43.59
2023-04-03T16:08:41.317Z,43.59
2023-04-03T16:11:50.558Z,43.49
2023-04-03T16:14:52.828Z,43.23
2023-04-03T16:17:55.004Z,43.24
2023-04-03T16:21:08.987Z,43.09
2023-04-03T16:24:11.201Z,43.00
2023-04-03T16:27:12.924Z,42.86
2023-04-03T16:30:15.607Z,42.81
2023-04-03T16:33:17.481Z,42.72
2023-04-03T16:36:19.343Z,42.86
2023-04-03T16:39:21.552Z,42.74
2023-04-03T16:42:35.276Z,42.75
2023-04-03T16:45:39.070Z,42.77
2023-04-03T16:48:41.306Z,42.77
2023-04-03T16:51:43.198Z,42.76
2023-04-03T16:54:48.043Z,42.75
2023-04-03T16:57:51.993Z,42.74
2023-04-03T17:00:54.853Z,42.71
2023-04-03T17:03:56.667Z,42.65
2023-04-03T17:06:58.573Z,42.68
2023-04-03T17:10:00.750Z,42.76
2023-04-03T17:13:02.628Z,42.78
2023-04-03T17:16:27.310Z,42.78
2023-04-03T17:19:29.454Z,42.72
2023-04-03T17:22:33.172Z,42.71
2023-04-03T17:25:34.996Z,42.79
2023-04-03T17:28:57.395Z,42.76
2023-04-03T17:32:28.541Z,42.69
2023-04-03T17:35:33.122Z,42.69
2023-04-03T17:38:44.125Z,42.71
2023-04-03T17:41:51.950Z,42.66
2023-04-03T17:44:57.082Z,42.46
2023-04-03T17:47:58.933Z,42.52
2023-04-03T17:51:16.105Z,42.47
2023-04-03T17:54:17.807Z,42.47
2023-04-03T17:57:22.587Z,42.53
2023-04-03T18:00:39.282Z,42.38
2023-04-03T18:03:42.136Z,42.37
2023-04-03T18:06:49.420Z,42.37
2023-04-03T18:09:52.819Z,42.35
2023-04-03T18:12:54.798Z,42.29
2023-04-03T18:16:16.958Z,42.16
2023-04-03T18:19:41.687Z,42.20
2023-04-03T18:23:16.150Z,42.23
2023-04-03T18:26:30.568Z,42.26
2023-04-03T18:29:33.784Z,42.25
2023-04-03T18:32:38.704Z,42.26
2023-04-03T18:36:00.847Z,42.26
2023-04-03T18:39:04.971Z,42.22
2023-04-03T18:42:18.306Z,42.38
2023-04-03T18:45:23.423Z,42.40
2023-04-03T18:48:45.986Z,42.42
2023-04-03T18:52:08.149Z,42.38
2023-04-03T18:55:31.345Z,42.58
2023-04-03T18:58:33.260Z,42.73
2023-04-03T19:01:47.762Z,43.00
2023-04-03T19:05:05.366Z,43.38
2023-04-03T19:08:07.572Z,43.83
2023-04-03T19:11:31.559Z,44.20
2023-04-03T19:14:46.900Z,44.60
2023-04-03T19:18:06.612Z,45.00
2023-04-03T19:21:11.364Z,45.39
2023-04-03T19:24:16.566Z,45.91
2023-04-03T19:27:49.129Z,46.19
2023-04-03T19:30:53.607Z,46.67
2023-04-03T19:33:58.199Z,47.05
2023-04-03T19:37:00.339Z,47.12
2023-04-03T19:40:13.738Z,47.42
2023-04-03T19:43:17.659Z,47.70
2023-04-03T19:46:39.863Z,47.77
2023-04-03T19:49:44.110Z,47.85
2023-04-03T19:52:46.141Z,47.93
2023-04-03T19:56:01.557Z,47.99
2023-04-03T19:59:03.520Z,48.04
2023-04-03T20:02:11.395Z,48.05
2023-04-03T20:05:15.947Z,48.15
2023-04-03T20:08:18.211Z,48.34
2023-04-03T20:11:20.160Z,48.42
2023-04-03T20:14:21.909Z,48.53
2023-04-03T20:17:27.249Z,48.48
2023-04-03T20:20:31.310Z,48.49
2023-04-03T20:23:34.074Z,48.53
2023-04-03T20:26:42.226Z,48.60
2023-04-03T20:29:55.753Z,48.59
2023-04-03T20:32:59.322Z,48.57
2023-04-03T20:36:17.860Z,48.44
2023-04-03T20:39:24.168Z,48.38
2023-04-03T20:42:26.546Z,48.29
2023-04-03T20:45:33.604Z,48.29
2023-04-03T20:48:35.695Z,48.31
2023-04-03T20:51:37.752Z,48.33
2023-04-03T20:54:40.138Z,48.24
2023-04-03T20:57:54.340Z,48.19
2023-04-03T21:01:00.258Z,48.21
2023-04-03T21:04:19.708Z,48.20
2023-04-03T21:07:59.725Z,48.25
2023-04-03T21:11:39.489Z,48.40
2023-04-03T21:15:21.549Z,48.46
2023-04-03T21:18:38.685Z,48.44
2023-04-03T21:21:40.443Z,48.41
2023-04-03T21:24:43.244Z,48.49
2023-04-03T21:27:45.094Z,48.50
2023-04-03T21:30:47.009Z,48.50
2023-04-03T21:33:49.871Z,48.68
2023-04-03T21:36:53.173Z,48.64
2023-04-03T21:39:54.912Z,48.57
2023-04-03T21:42:57.245Z,48.59
2023-04-03T21:46:00.031Z,48.60
2023-04-03T21:49:02.668Z,48.76
2023-04-03T21:52:04.743Z,48.72
2023-04-03T21:55:08.797Z,48.87
2023-04-03T21:58:10.524Z,48.89
2023-04-03T22:01:18.464Z,48.89
2023-04-03T22:04:23.526Z,48.97
2023-04-03T22:07:25.503Z,48.97
2023-04-03T22:10:28.245Z,49.09
2023-04-03T22:13:30.905Z,48.98
2023-04-03T22:16:34.822Z,49.17
2023-04-03T22:19:36.622Z,49.20
2023-04-03T22:22:38.452Z,49.32
2023-04-03T22:25:42.697Z,49.50
2023-04-03T22:28:46.561Z,49.48
2023-04-03T22:31:55.821Z,49.45
2023-04-03T22:35:00.362Z,49.45
2023-04-03T22:38:02.611Z,49.50
2023-04-03T22:41:08.264Z,49.48
2023-04-03T22:44:10.742Z,49.43
2023-04-03T22:47:12.840Z,49.47
2023-04-03T22:50:17.837Z,49.39
2023-04-03T22:53:28.579Z,49.31
2023-04-03T22:56:50.989Z,49.25
2023-04-03T22:59:52.779Z,49.11
2023-04-03T23:02:55.057Z,49.03
2023-04-03T23:06:01.553Z,49.17
2023-04-03T23:09:13.449Z,49.03
2023-04-03T23:12:25.689Z,49.00
2023-04-03T23:15:37.080Z,49.08
2023-04-03T23:18:40.101Z,49.05
2023-04-03T23:21:42.281Z,48.99
2023-04-03T23:24:44.672Z,49.05
2023-04-03T23:28:05.460Z,48.97
2023-04-03T23:31:27.739Z,49.08
2023-04-03T23:34:29.711Z,49.12
2023-04-03T23:37:42.766Z,49.15
2023-04-03T23:40:46.084Z,49.16
2023-04-03T23:44:08.128Z,49.36
2023-04-03T23:47:09.894Z,49.57
2023-04-03T23:50:17.245Z,49.53
2023-04-03T23:53:28.378Z,49.70
2023-04-03T23:56:31.618Z,49.75
2023-04-03T23:59:33.593Z,49.89
